createdAt,value
2018-04-01T00:00:58.935Z,26.13
2018-04-01T00:03:26.574Z,26.00
2018-04-01T00:05:54.320Z,25.67
2018-04-01T00:08:22.729Z,23.73
2018-04-01T00:10:50.406Z,24.93
2018-04-01T00:13:18.055Z,24.83
2018-04-01T00:15:45.681Z,23.27
2018-04-01T00:18:13.302Z,23.63
2018-04-01T00:20:40.919Z,24.20
2018-04-01T00:23:08.879Z,25.20
2018-04-01T00:25:37.261Z,24.80
2018-04-01T00:28:06.068Z,26.77
2018-04-01T00:30:33.686Z,26.60
2018-04-01T00:33:01.335Z,25.27
2018-04-01T00:35:28.954Z,25.83
2018-04-01T00:37:56.587Z,23.73
2018-04-01T00:40:24.209Z,24.53
2018-04-01T00:42:51.844Z,24.07
2018-04-01T00:45:19.472Z,24.80
2018-04-01T00:47:47.916Z,23.53
2018-04-01T00:50:15.498Z,22.93
2018-04-01T00:52:43.156Z,22.93
2018-04-01T00:55:10.784Z,24.30
2018-04-01T00:57:39.960Z,23.30
2018-04-01T01:00:07.575Z,24.80
2018-04-01T01:02:35.229Z,23.07
2018-04-01T01:05:02.842Z,21.07
2018-04-01T01:07:31.252Z,21.33
2018-04-01T01:09:58.872Z,22.27
2018-04-01T01:12:27.282Z,22.03
2018-04-01T01:14:54.895Z,24.10
2018-04-01T01:17:23.296Z,22.90
2018-04-01T01:19:50.937Z,22.87
2018-04-01T01:22:18.567Z,23.07
2018-04-01T01:24:46.953Z,23.67
2018-04-01T01:27:14.567Z,22.17
2018-04-01T01:29:43.642Z,24.13
2018-04-01T01:32:12.035Z,22.00
2018-04-01T01:34:40.436Z,21.53
2018-04-01T01:37:08.053Z,22.47
2018-04-01T01:39:35.675Z,20.10
2018-04-01T01:42:03.287Z,23.27
2018-04-01T01:44:30.937Z,22.03
2018-04-01T01:46:58.559Z,23.37
2018-04-01T01:49:26.202Z,23.40
2018-04-01T01:51:54.328Z,22.30
2018-04-01T01:54:21.978Z,22.67
2018-04-01T01:56:49.598Z,23.57
2018-04-01T01:59:17.239Z,23.80
2018-04-01T02:01:44.855Z,23.33
2018-04-01T02:04:12.495Z,22.40
2018-04-01T02:06:40.126Z,23.40
2018-04-01T02:09:07.792Z,21.93
2018-04-01T02:11:35.419Z,22.57
2018-04-01T02:14:03.066Z,23.13
2018-04-01T02:16:30.692Z,24.97
2018-04-01T02:18:58.327Z,23.10
2018-04-01T02:21:26.738Z,23.43
2018-04-01T02:23:54.374Z,23.70
2018-04-01T02:26:22.013Z,24.30
2018-04-01T02:28:49.639Z,22.00
2018-04-01T02:31:17.261Z,21.23
2018-04-01T02:33:44.899Z,20.73
2018-04-01T02:36:13.281Z,20.63
2018-04-01T02:38:41.738Z,21.90
2018-04-01T02:41:09.372Z,21.30
2018-04-01T02:43:37.015Z,19.33
2018-04-01T02:46:04.645Z,21.90
2018-04-01T02:48:33.520Z,20.23
2018-04-01T02:51:01.138Z,20.27
2018-04-01T02:53:29.750Z,20.10
2018-04-01T02:55:57.398Z,23.00
2018-04-01T02:58:25.058Z,21.77
2018-04-01T03:00:52.698Z,23.03
2018-04-01T03:03:20.338Z,24.37
2018-04-01T03:05:48.721Z,22.77
2018-04-01T03:08:17.136Z,25.00
2018-04-01T03:10:44.751Z,23.43
2018-04-01T03:13:13.146Z,22.60
2018-04-01T03:15:40.776Z,25.33
2018-04-01T03:18:08.483Z,22.37
2018-04-01T03:20:36.209Z,25.23
2018-04-01T03:23:03.847Z,22.37
2018-04-01T03:25:31.455Z,25.57
2018-04-01T03:27:59.119Z,25.40
2018-04-01T03:30:26.769Z,26.40
2018-04-01T03:32:54.501Z,24.77
2018-04-01T03:35:22.920Z,23.23
2018-04-01T03:37:51.302Z,25.40
2018-04-01T03:40:19.016Z,25.03
2018-04-01T03:42:46.682Z,26.67
2018-04-01T03:45:14.325Z,23.13
2018-04-01T03:47:41.940Z,26.60
2018-04-01T03:50:10.357Z,24.87
2018-04-01T03:52:39.276Z,25.07
2018-04-01T03:55:06.972Z,24.70
2018-04-01T03:57:35.371Z,24.73
2018-04-01T04:00:03.232Z,26.00
2018-04-01T04:02:35.563Z,27.90
2018-04-01T04:05:04.180Z,28.00
2018-04-01T04:07:32.585Z,28.77
2018-04-01T04:10:00.219Z,24.70
2018-04-01T04:12:27.857Z,26.73
2018-04-01T04:14:55.491Z,28.80
2018-04-01T04:17:23.124Z,25.97
2018-04-01T04:19:50.765Z,22.73
2018-04-01T04:22:19.138Z,25.10
2018-04-01T04:24:47.544Z,22.70
2018-04-01T04:27:15.164Z,24.87
2018-04-01T04:29:42.816Z,25.00
2018-04-01T04:32:10.832Z,23.30
2018-04-01T04:34:38.619Z,23.67
2018-04-01T04:37:06.236Z,21.57
2018-04-01T04:39:34.663Z,21.13
2018-04-01T04:42:02.278Z,24.57
2018-04-01T04:44:30.681Z,21.73
2018-04-01T04:46:58.355Z,24.50
2018-04-01T04:49:25.997Z,23.67
2018-04-01T04:51:54.370Z,26.27
2018-04-01T04:54:22.780Z,25.83
2018-04-01T04:56:50.391Z,27.30
2018-04-01T04:59:18.308Z,29.90
2018-04-01T05:01:45.919Z,28.37
2018-04-01T05:04:13.560Z,25.67
2018-04-01T05:06:41.188Z,28.83
2018-04-01T05:09:08.832Z,26.73
2018-04-01T05:11:36.718Z,27.43
2018-04-01T05:14:05.355Z,27.80
2018-04-01T05:16:33.179Z,27.57
2018-04-01T05:19:00.817Z,27.13
2018-04-01T05:21:28.440Z,28.63
2018-04-01T05:23:56.079Z,26.90
2018-04-01T05:26:23.694Z,31.73
2018-04-01T05:28:51.327Z,31.40
2018-04-01T05:31:18.948Z,29.90
2018-04-01T05:33:46.581Z,33.00
2018-04-01T05:36:15.266Z,34.47
2018-04-01T05:38:42.906Z,34.77
2018-04-01T05:41:10.524Z,36.37
2018-04-01T05:43:38.156Z,33.23
2018-04-01T05:46:05.777Z,33.40
2018-04-01T05:48:33.419Z,30.23
2018-04-01T05:51:01.039Z,32.20
2018-04-01T05:53:28.682Z,30.20
2018-04-01T05:55:57.077Z,31.57
2018-04-01T05:58:24.707Z,30.83
2018-04-01T06:00:52.345Z,35.97
2018-04-01T06:03:19.971Z,31.60
2018-04-01T06:05:48.488Z,29.67
2018-04-01T06:08:16.500Z,32.00
2018-04-01T06:10:44.131Z,31.53
2018-04-01T06:13:11.803Z,29.27
2018-04-01T06:15:39.452Z,32.67
2018-04-01T06:18:07.091Z,31.10
2018-04-01T06:20:34.744Z,33.13
2018-04-01T06:23:03.460Z,31.67
2018-04-01T06:25:31.123Z,32.40
2018-04-01T06:27:58.732Z,32.90
2018-04-01T06:30:26.390Z,29.40
2018-04-01T06:32:54.778Z,31.47
2018-04-01T06:35:23.289Z,33.67
2018-04-01T06:37:50.909Z,31.87
2018-04-01T06:40:18.630Z,29.07
2018-04-01T06:42:46.243Z,29.20
2018-04-01T06:45:14.688Z,28.20
2018-04-01T06:47:42.299Z,28.80
2018-04-01T06:50:09.941Z,28.90
2018-04-01T06:52:38.319Z,30.43
2018-04-01T06:55:06.721Z,29.67
2018-04-01T06:57:34.356Z,26.80
2018-04-01T07:00:02.055Z,31.00
2018-04-01T07:02:33.589Z,30.20
2018-04-01T07:05:01.249Z,30.37
2018-04-01T07:07:29.635Z,31.97
2018-04-01T07:09:57.284Z,30.90
2018-04-01T07:12:25.676Z,32.30
2018-04-01T07:14:53.320Z,30.70
2018-04-01T07:17:21.715Z,31.67
2018-04-01T07:19:49.364Z,32.03
2018-04-01T07:22:17.740Z,29.63
2018-04-01T07:24:46.144Z,28.90
2018-04-01T07:27:14.623Z,28.50
2018-04-01T07:29:42.322Z,29.80
2018-04-01T07:32:09.931Z,28.80
2018-04-01T07:34:38.322Z,29.20
2018-04-01T07:37:05.950Z,28.97
2018-04-01T07:39:33.579Z,27.70
2018-04-01T07:42:01.204Z,27.63
2018-04-01T07:44:28.850Z,28.03
2018-04-01T07:46:57.229Z,26.50
2018-04-01T07:49:25.628Z,23.63
2018-04-01T07:51:53.258Z,23.77
2018-04-01T07:54:20.903Z,23.70
2018-04-01T07:56:48.519Z,23.10
2018-04-01T07:59:16.154Z,24.30
2018-04-01T08:01:44.535Z,24.90
2018-04-01T08:04:12.968Z,24.60
2018-04-01T08:06:40.589Z,23.35
2018-04-01T08:09:09.035Z,22.93
2018-04-01T08:11:37.455Z,24.07
2018-04-01T08:14:05.075Z,22.17
2018-04-01T08:16:32.716Z,22.40
2018-04-01T08:19:00.328Z,23.27
2018-04-01T08:21:28.756Z,22.50
2018-04-01T08:23:56.368Z,23.10
2018-04-01T08:26:24.776Z,24.70
2018-04-01T08:28:52.412Z,24.87
2018-04-01T08:31:20.091Z,22.93
2018-04-01T08:33:47.708Z,25.17
2018-04-01T08:36:15.350Z,26.03
2018-04-01T08:38:42.967Z,25.63
2018-04-01T08:41:10.612Z,23.03
2018-04-01T08:43:39.004Z,26.10
2018-04-01T08:46:06.668Z,24.50
2018-04-01T08:48:34.278Z,23.93
2018-04-01T08:51:02.687Z,25.10
2018-04-01T08:53:30.307Z,24.13
2018-04-01T08:55:57.955Z,24.10
2018-04-01T08:58:25.575Z,22.13
2018-04-01T09:00:53.216Z,23.50
2018-04-01T09:03:20.846Z,23.07
2018-04-01T09:05:48.490Z,22.67
2018-04-01T09:08:17.657Z,23.60
2018-04-01T09:10:46.074Z,22.20
2018-04-01T09:13:16.114Z,22.80
2018-04-01T09:15:43.751Z,23.50
2018-04-01T09:18:11.368Z,22.97
2018-04-01T09:20:39.018Z,24.40
2018-04-01T09:23:06.642Z,23.03
2018-04-01T09:25:34.570Z,21.77
2018-04-01T09:28:02.953Z,23.37
2018-04-01T09:30:31.360Z,21.90
2018-04-01T09:32:58.973Z,21.70
2018-04-01T09:35:26.608Z,20.73
2018-04-01T09:37:54.244Z,22.10
2018-04-01T09:40:21.887Z,23.20
2018-04-01T09:42:50.266Z,20.67
2018-04-01T09:45:17.916Z,20.70
2018-04-01T09:47:46.360Z,21.00
2018-04-01T09:50:14.009Z,20.03
2018-04-01T09:52:41.636Z,21.37
2018-04-01T09:55:09.277Z,20.20
2018-04-01T09:57:36.891Z,20.30
2018-04-01T10:00:04.535Z,19.70
2018-04-01T10:02:35.416Z,19.47
2018-04-01T10:05:10.390Z,18.77
2018-04-01T10:07:38.479Z,17.70
2018-04-01T10:10:06.576Z,17.57
2018-04-01T10:12:34.713Z,18.10
2018-04-01T10:15:02.865Z,18.40
2018-04-01T10:17:31.755Z,18.60
2018-04-01T10:20:00.783Z,17.47
2018-04-01T10:22:29.644Z,19.10
2018-04-01T10:24:58.524Z,19.37
2018-04-01T10:27:26.648Z,18.60
2018-04-01T10:29:54.751Z,19.13
2018-04-01T10:32:22.879Z,19.50
2018-04-01T10:34:50.991Z,19.80
2018-04-01T10:37:20.339Z,20.93
2018-04-01T10:39:48.450Z,21.03
2018-04-01T10:42:16.575Z,22.03
2018-04-01T10:44:46.572Z,19.40
2018-04-01T10:47:17.047Z,21.07
2018-04-01T10:49:45.059Z,20.50
2018-04-01T10:52:13.190Z,19.20
2018-04-01T10:54:41.016Z,20.43
2018-04-01T10:57:08.746Z,18.47
2018-04-01T10:59:36.364Z,17.40
2018-04-01T11:02:04.064Z,19.30
2018-04-01T11:04:31.675Z,18.63
2018-04-01T11:07:00.076Z,18.50
2018-04-01T11:09:27.691Z,23.27
2018-04-01T11:11:55.354Z,17.87
2018-04-01T11:14:22.976Z,18.73
2018-04-01T11:16:50.583Z,18.00
2018-04-01T11:19:18.214Z,18.80
2018-04-01T11:21:45.828Z,18.30
2018-04-01T11:24:14.231Z,20.30
2018-04-01T11:26:41.838Z,19.37
2018-04-01T11:29:10.367Z,18.20
2018-04-01T11:31:37.992Z,18.20
2018-04-01T11:34:05.638Z,21.50
2018-04-01T11:36:33.259Z,20.20
2018-04-01T11:39:00.922Z,21.53
2018-04-01T11:41:28.527Z,20.83
2018-04-01T11:43:56.172Z,21.33
2018-04-01T11:46:24.542Z,23.17
2018-04-01T11:48:52.182Z,20.80
2018-04-01T11:51:19.796Z,18.30
2018-04-01T11:53:47.439Z,17.50
2018-04-01T11:56:15.052Z,18.57
2018-04-01T11:58:42.696Z,18.93
2018-04-01T12:01:10.786Z,16.77
2018-04-01T12:03:38.411Z,16.50
2018-04-01T12:06:06.047Z,15.60
2018-04-01T12:08:33.687Z,15.90
2018-04-01T12:11:01.332Z,15.23
2018-04-01T12:13:28.978Z,14.87
2018-04-01T12:15:56.610Z,14.40
2018-04-01T12:18:24.228Z,15.57
2018-04-01T12:23:25.894Z,17.03
2018-04-01T12:25:53.536Z,16.00
2018-04-01T12:28:21.919Z,16.53
2018-04-01T12:30:50.715Z,15.93
2018-04-01T12:33:19.463Z,15.10
2018-04-01T12:35:47.104Z,16.40
2018-04-01T12:38:14.727Z,14.67
2018-04-01T12:40:42.369Z,16.50
2018-04-01T12:43:09.992Z,15.47
2018-04-01T12:45:37.636Z,15.50
2018-04-01T12:48:05.268Z,15.83
2018-04-01T12:50:34.532Z,15.43
2018-04-01T12:53:02.097Z,15.83
2018-04-01T12:55:29.748Z,14.20
2018-04-01T12:57:59.587Z,14.37
2018-04-01T13:00:27.238Z,17.37
2018-04-01T13:02:54.871Z,15.13
2018-04-01T13:05:23.824Z,15.73
2018-04-01T13:07:52.220Z,14.20
2018-04-01T13:10:19.860Z,14.27
2018-04-01T13:12:48.289Z,14.67
2018-04-01T13:15:15.900Z,13.77
2018-04-01T13:17:45.543Z,14.13
2018-04-01T13:20:13.174Z,13.87
2018-04-01T13:22:41.603Z,14.60
2018-04-01T13:25:09.219Z,14.53
2018-04-01T13:27:37.633Z,14.70
2018-04-01T13:30:05.262Z,14.33
2018-04-01T13:32:34.407Z,14.53
2018-04-01T13:35:02.045Z,16.07
2018-04-01T13:37:31.024Z,14.73
2018-04-01T13:39:58.645Z,14.70
2018-04-01T13:42:26.352Z,15.10
2018-04-01T13:44:53.975Z,15.33
2018-04-01T13:47:21.625Z,15.93
2018-04-01T13:49:49.248Z,14.80
2018-04-01T13:52:16.887Z,15.40
2018-04-01T13:54:45.271Z,15.83
2018-04-01T13:57:12.910Z,16.50
2018-04-01T13:59:40.531Z,16.53
2018-04-01T14:02:10.343Z,17.57
2018-04-01T14:04:37.979Z,17.80
2018-04-01T14:07:06.359Z,17.27
2018-04-01T14:09:34.028Z,17.87
2018-04-01T14:12:01.672Z,19.23
2018-04-01T14:14:30.195Z,17.57
2018-04-01T14:16:58.658Z,17.57
2018-04-01T14:19:27.135Z,18.73
2018-04-01T14:21:54.781Z,17.40
2018-04-01T14:24:23.274Z,18.97
2018-04-01T14:26:50.907Z,18.40
2018-04-01T14:29:19.153Z,18.27
2018-04-01T14:31:46.783Z,18.47
2018-04-01T14:34:15.152Z,17.73
2018-04-01T14:36:42.794Z,16.60
2018-04-01T14:39:11.176Z,16.43
2018-04-01T14:41:39.579Z,16.97
2018-04-01T14:44:07.195Z,15.67
2018-04-01T14:46:34.831Z,14.73
2018-04-01T14:49:02.460Z,15.43
2018-04-01T14:51:30.110Z,15.87
2018-04-01T14:53:58.856Z,17.20
2018-04-01T14:56:26.562Z,16.60
2018-04-01T14:58:54.935Z,18.93
2018-04-01T15:01:23.330Z,18.93
2018-04-01T15:03:50.942Z,19.77
2018-04-01T15:06:18.587Z,16.27
2018-04-01T15:08:47.345Z,16.70
2018-04-01T15:11:16.540Z,16.57
2018-04-01T15:13:44.167Z,18.67
2018-04-01T15:16:12.667Z,17.23
2018-04-01T15:18:41.408Z,16.57
2018-04-01T15:21:09.043Z,15.40
2018-04-01T15:23:36.659Z,15.63
2018-04-01T15:26:04.369Z,15.33
2018-04-01T15:28:31.983Z,14.90
2018-04-01T15:30:59.623Z,14.70
2018-04-01T15:33:28.245Z,16.70
2018-04-01T15:35:58.124Z,13.67
2018-04-01T15:38:26.540Z,15.10
2018-04-01T15:40:54.920Z,14.03
2018-04-01T15:43:23.327Z,14.33
2018-04-01T15:45:50.944Z,14.90
2018-04-01T15:48:18.603Z,12.60
2018-04-01T15:50:46.224Z,12.77
2018-04-01T15:53:23.610Z,13.23
2018-04-01T15:55:51.945Z,12.97
2018-04-01T15:58:21.912Z,12.97
2018-04-01T16:00:56.091Z,14.00
2018-04-01T16:03:25.806Z,12.10
2018-04-01T16:05:53.432Z,12.33
2018-04-01T16:08:21.080Z,12.60
2018-04-01T16:10:48.799Z,12.90
2018-04-01T16:13:23.647Z,13.73
2018-04-01T16:15:51.351Z,11.93
2018-04-01T16:18:18.996Z,14.20
2018-04-01T16:20:46.611Z,13.07
2018-04-01T16:23:14.256Z,14.70
2018-04-01T16:25:42.630Z,13.90
2018-04-01T16:28:11.040Z,14.70
2018-04-01T16:30:38.669Z,12.40
2018-04-01T16:33:06.343Z,14.50
2018-04-01T16:35:35.288Z,14.40
2018-04-01T16:38:02.919Z,15.13
2018-04-01T16:40:30.572Z,14.80
2018-04-01T16:42:58.991Z,14.37
2018-04-01T16:45:27.534Z,14.77
2018-04-01T16:47:55.935Z,14.37
2018-04-01T16:50:23.551Z,14.13
2018-04-01T16:52:51.191Z,16.13
2018-04-01T16:55:18.912Z,15.40
2018-04-01T16:57:46.556Z,15.03
2018-04-01T17:00:14.931Z,14.23
2018-04-01T17:02:43.348Z,15.17
2018-04-01T17:05:10.963Z,16.90
2018-04-01T17:07:38.602Z,16.67
2018-04-01T17:10:06.223Z,16.77
2018-04-01T17:12:33.863Z,15.93
2018-04-01T17:15:02.257Z,16.50
2018-04-01T17:17:31.248Z,15.63
2018-04-01T17:19:59.627Z,16.47
2018-04-01T17:22:28.027Z,16.10
2018-04-01T17:24:55.644Z,16.63
2018-04-01T17:27:23.288Z,16.57
2018-04-01T17:29:50.920Z,14.93
2018-04-01T17:32:18.568Z,17.60
2018-04-01T17:34:46.216Z,16.83
2018-04-01T17:37:14.628Z,16.00
2018-04-01T17:39:42.242Z,16.30
2018-04-01T17:42:09.870Z,15.60
2018-04-01T17:44:37.487Z,16.33
2018-04-01T17:47:05.123Z,16.93
2018-04-01T17:49:32.744Z,15.80
2018-04-01T17:52:00.396Z,17.23
2018-04-01T17:54:28.004Z,16.03
2018-04-01T17:56:55.635Z,15.83
2018-04-01T17:59:23.251Z,16.40
2018-04-01T18:01:50.894Z,16.50
2018-04-01T18:04:18.651Z,17.47
2018-04-01T18:06:46.295Z,18.60
2018-04-01T18:09:13.911Z,17.80
2018-04-01T18:11:41.574Z,19.33
2018-04-01T18:14:09.944Z,19.67
2018-04-01T18:16:37.554Z,20.10
2018-04-01T18:19:05.247Z,20.70
2018-04-01T18:21:32.868Z,22.00
2018-04-01T18:24:00.509Z,22.50
2018-04-01T18:26:28.387Z,23.33
2018-04-01T18:28:56.252Z,23.17
2018-04-01T18:31:23.873Z,19.37
2018-04-01T18:33:52.269Z,19.63
2018-04-01T18:36:19.901Z,34.10
2018-04-01T18:38:47.536Z,44.70
2018-04-01T18:41:15.161Z,40.53
2018-04-01T18:43:42.807Z,35.83
2018-04-01T18:46:11.181Z,30.77
2018-04-01T18:48:39.604Z,50.40
2018-04-01T18:51:07.223Z,122.53
2018-04-01T18:53:35.636Z,131.57
2018-04-01T18:56:03.253Z,166.67
2018-04-01T18:58:31.663Z,180.83
2018-04-01T19:00:59.294Z,146.20
2018-04-01T19:03:27.707Z,149.87
2018-04-01T19:05:55.339Z,135.83
2018-04-01T19:08:23.759Z,106.80
2018-04-01T19:10:51.383Z,81.13
2018-04-01T19:13:19.791Z,73.37
2018-04-01T19:15:47.403Z,58.03
2018-04-01T19:18:16.307Z,44.10
2018-04-01T19:20:44.412Z,39.13
2018-04-01T19:23:13.065Z,35.03
2018-04-01T19:25:41.168Z,32.70
2018-04-01T19:28:09.302Z,30.70
2018-04-01T19:30:37.416Z,31.40
2018-04-01T19:33:05.668Z,29.50
2018-04-01T19:35:34.225Z,30.37
2018-04-01T19:38:02.525Z,31.60
2018-04-01T19:40:31.391Z,28.33
2018-04-01T19:42:59.574Z,27.30
2018-04-01T19:45:27.684Z,25.47
2018-04-01T19:47:55.811Z,24.57
2018-04-01T19:50:23.938Z,26.60
2018-04-01T19:52:52.068Z,26.50
2018-04-01T19:55:20.171Z,27.20
2018-04-01T19:57:48.299Z,26.03
2018-04-01T20:00:16.415Z,26.33
2018-04-01T20:02:44.552Z,25.33
2018-04-01T20:05:13.080Z,24.20
2018-04-01T20:07:41.210Z,25.90
2018-04-01T20:10:09.323Z,26.70
2018-04-01T20:12:37.455Z,26.00
2018-04-01T20:15:05.565Z,28.77
2018-04-01T20:17:33.700Z,26.80
2018-04-01T20:20:01.807Z,27.97
2018-04-01T20:22:29.955Z,30.33
2018-04-01T20:24:58.056Z,30.57
2018-04-01T20:27:26.265Z,29.30
2018-04-01T20:29:55.214Z,30.37
2018-04-01T20:32:24.119Z,29.50
2018-04-01T20:34:52.249Z,29.70
2018-04-01T20:37:21.972Z,30.10
2018-04-01T20:39:50.110Z,32.30
2018-04-01T20:42:18.227Z,30.70
2018-04-01T20:44:47.124Z,30.60
2018-04-01T20:47:16.007Z,30.07
2018-04-01T20:49:44.904Z,32.07
2018-04-01T20:52:13.456Z,30.60
2018-04-01T20:54:41.590Z,30.60
2018-04-01T20:57:09.707Z,31.20
2018-04-01T20:59:37.836Z,32.40
2018-04-01T21:02:05.938Z,31.17
2018-04-01T21:04:34.071Z,30.67
2018-04-01T21:07:02.443Z,28.87
2018-04-01T21:09:30.568Z,30.97
2018-04-01T21:11:58.675Z,31.70
2018-04-01T21:14:27.571Z,30.30
2018-04-01T21:16:56.446Z,29.23
2018-04-01T21:19:24.583Z,29.90
2018-04-01T21:21:52.690Z,29.90
2018-04-01T21:24:20.818Z,31.13
2018-04-01T21:26:48.935Z,30.03
2018-04-01T21:29:17.065Z,30.93
2018-04-01T21:31:45.208Z,28.67
2018-04-01T21:34:13.343Z,29.97
2018-04-01T21:36:41.454Z,28.37
2018-04-01T21:39:09.579Z,26.87
2018-04-01T21:41:37.687Z,28.13
2018-04-01T21:44:06.602Z,28.20
2018-04-01T21:46:34.711Z,25.53
2018-04-01T21:49:02.978Z,27.37
2018-04-01T21:51:31.867Z,26.90
2018-04-01T21:54:00.008Z,28.73
2018-04-01T21:56:28.116Z,27.57
2018-04-01T21:58:56.260Z,27.83
2018-04-01T22:01:24.371Z,27.27
2018-04-01T22:03:52.499Z,27.77
2018-04-01T22:06:20.628Z,26.77
2018-04-01T22:08:48.774Z,28.87
2018-04-01T22:11:16.889Z,27.70
2018-04-01T22:13:45.019Z,25.90
2018-04-01T22:16:13.123Z,27.77
2018-04-01T22:18:41.258Z,29.47
2018-04-01T22:21:09.371Z,27.57
2018-04-01T22:23:37.492Z,28.73
2018-04-01T22:26:05.608Z,28.03
2018-04-01T22:28:33.736Z,28.47
2018-04-01T22:31:01.847Z,29.40
2018-04-01T22:33:29.991Z,29.20
2018-04-01T22:35:58.119Z,27.40
2018-04-01T22:38:26.264Z,28.63
2018-04-01T22:40:55.707Z,29.50
2018-04-01T22:43:23.835Z,29.80
2018-04-01T22:45:51.950Z,30.10
2018-04-01T22:48:20.084Z,30.07
2018-04-01T22:50:48.202Z,30.27
2018-04-01T22:53:17.315Z,30.60
2018-04-01T22:55:46.211Z,30.33
2018-04-01T22:58:15.410Z,30.87
2018-04-01T23:00:44.303Z,31.80
2018-04-01T23:03:12.415Z,32.13
2018-04-01T23:05:40.552Z,30.27
2018-04-01T23:08:08.676Z,30.30
2018-04-01T23:10:36.817Z,31.47
2018-04-01T23:13:04.919Z,31.30
2018-04-01T23:15:33.055Z,29.80
2018-04-01T23:18:01.155Z,31.20
2018-04-01T23:20:29.355Z,31.10
2018-04-01T23:22:57.462Z,31.10
2018-04-01T23:25:25.599Z,33.80
2018-04-01T23:27:53.703Z,31.33
2018-04-01T23:30:21.858Z,33.17
2018-04-01T23:32:50.019Z,32.30
2018-04-01T23:35:18.159Z,31.93
2018-04-01T23:37:46.274Z,31.97
2018-04-01T23:40:14.412Z,33.07
2018-04-01T23:42:42.531Z,34.70
2018-04-01T23:45:11.530Z,32.53
2018-04-01T23:47:40.408Z,32.37
2018-04-01T23:50:08.556Z,30.67
2018-04-01T23:52:36.691Z,30.97
2018-04-01T23:55:04.818Z,30.90
2018-04-01T23:57:32.923Z,31.57
